Time;durP1;ratioP1;P1;durP2;ratioP2;P2;SDS_P1;SDS_P2;PMS_P1;PMS_P2;Temp;Humidity;BMP_temperature;BMP_pressure;BME280_temperature;BME280_humidity;BME280_pressure;Samples;Min_cycle;Max_cycle;Signal;HPM_P1;HPM_P2
2023/08/03 00:00:22;;;;;;;1.20;0.90;;;;;;;20.71;100.00;98504.58;178316;1261;46126;-85
2023/08/03 00:04:45;;;;;;;3.60;1.50;;;;;;;20.72;100.00;98489.14;177836;1261;46110;-85
2023/08/03 00:08:49;;;;;;;1.50;0.90;;;;;;;20.71;100.00;98476.36;177975;1264;58274;-86
2023/08/03 00:12:52;;;;;;;2.20;1.60;;;;;;;20.78;100.00;98446.59;177981;1261;46066;-85
2023/08/03 00:16:56;;;;;;;3.10;1.30;;;;;;;20.85;100.00;98477.29;177972;1262;46011;-85
2023/08/03 00:20:59;;;;;;;1.00;0.80;;;;;;;20.91;100.00;98513.47;177872;1260;46314;-85
2023/08/03 00:25:03;;;;;;;5.70;2.20;;;;;;;20.95;100.00;98489.89;178225;1264;46010;-85
2023/08/03 00:29:06;;;;;;;2.50;1.20;;;;;;;20.95;100.00;98445.62;178247;1262;59587;-85
2023/08/03 00:33:10;;;;;;;1.40;0.70;;;;;;;21.02;100.00;98446.77;178090;1263;46228;-85
2023/08/03 00:37:14;;;;;;;0.80;0.80;;;;;;;21.07;100.00;98480.95;177899;1263;46076;-85
2023/08/03 00:41:18;;;;;;;1.00;0.70;;;;;;;21.11;100.00;98497.24;178188;1261;46101;-85
2023/08/03 00:45:21;;;;;;;1.10;0.90;;;;;;;21.14;100.00;98497.02;178037;1266;44776;-85
2023/08/03 00:49:27;;;;;;;1.40;1.20;;;;;;;21.13;100.00;98482.73;177753;1261;58234;-85
2023/08/03 00:53:31;;;;;;;2.30;1.30;;;;;;;21.11;100.00;98485.30;177928;1262;46003;-85
2023/08/03 00:57:34;;;;;;;3.40;1.60;;;;;;;21.10;100.00;98470.99;178276;1263;46144;-85
2023/08/03 01:01:38;;;;;;;1.30;1.20;;;;;;;21.10;100.00;98496.73;177973;1260;46030;-85
2023/08/03 01:05:41;;;;;;;2.20;1.30;;;;;;;21.07;100.00;98489.64;177878;1261;45986;-85
2023/08/03 01:09:45;;;;;;;3.00;1.00;;;;;;;21.07;100.00;98487.52;178176;1263;58261;-85
2023/08/03 01:13:48;;;;;;;2.60;1.50;;;;;;;21.14;100.00;98483.67;178022;1263;46104;-85
2023/08/03 01:17:52;;;;;;;2.30;1.30;;;;;;;21.17;100.00;98478.88;178063;1263;46631;-85
2023/08/03 01:21:58;;;;;;;1.60;1.20;;;;;;;21.21;100.00;98476.13;178325;1260;46091;-85
2023/08/03 01:26:02;;;;;;;2.50;1.20;;;;;;;21.21;100.00;98463.64;178378;1260;46127;-85
2023/08/03 01:30:06;;;;;;;1.60;0.80;;;;;;;21.23;100.00;98465.69;178643;1260;59894;-85
2023/08/03 01:34:13;;;;;;;1.80;0.90;;;;;;;21.25;100.00;98473.83;178526;1260;45181;-85
2023/08/03 01:38:16;;;;;;;2.00;1.30;;;;;;;21.24;100.00;98462.09;177778;1260;46123;-85
2023/08/03 01:42:19;;;;;;;1.80;0.50;;;;;;;21.22;100.00;98480.71;178003;1261;46280;-85
2023/08/03 01:46:23;;;;;;;3.20;0.70;;;;;;;21.18;100.00;98492.45;178151;1260;46093;-85
2023/08/03 01:50:27;;;;;;;2.40;0.60;;;;;;;21.10;100.00;98494.56;178008;1262;59572;-86
2023/08/03 01:54:30;;;;;;;0.50;0.40;;;;;;;21.06;100.00;98501.35;177881;1260;46055;-85
2023/08/03 01:58:34;;;;;;;1.20;0.80;;;;;;;21.01;100.00;98504.84;177977;1260;45993;-85
2023/08/03 02:02:37;;;;;;;0.80;0.70;;;;;;;20.97;100.00;98491.55;178302;1261;46034;-85
2023/08/03 02:06:47;;;;;;;1.10;0.80;;;;;;;20.94;100.00;98490.41;178182;1260;46206;-85
2023/08/03 02:10:51;;;;;;;1.00;0.60;;;;;;;20.95;100.00;98495.56;178529;1261;58645;-86
2023/08/03 02:14:55;;;;;;;1.40;0.70;;;;;;;20.97;100.00;98501.02;178197;1261;46111;-85
2023/08/03 02:18:58;;;;;;;17.50;1.50;;;;;;;20.95;100.00;98500.64;178262;1264;45991;-85
2023/08/03 02:23:01;;;;;;;1.30;0.70;;;;;;;20.94;100.00;98508.35;177765;1261;45818;-85
2023/08/03 02:27:05;;;;;;;1.80;0.90;;;;;;;20.94;100.00;98508.09;178107;1260;44076;-85
2023/08/03 02:31:08;;;;;;;1.00;0.70;;;;;;;20.89;100.00;98505.04;178057;1260;58546;-85
2023/08/03 02:35:11;;;;;;;1.40;1.00;;;;;;;20.82;100.00;98508.39;177956;1261;46043;-85
2023/08/03 02:39:14;;;;;;;1.30;0.90;;;;;;;20.80;100.00;98509.43;177831;1260;46128;-86
2023/08/03 02:43:17;;;;;;;1.10;0.50;;;;;;;20.78;100.00;98518.45;177722;1260;46023;-85
2023/08/03 02:47:21;;;;;;;2.10;0.90;;;;;;;20.76;100.00;98521.49;178042;1261;46109;-85
2023/08/03 02:51:25;;;;;;;2.60;0.70;;;;;;;20.74;100.00;98533.96;178017;1261;57909;-85
2023/08/03 02:55:28;;;;;;;1.10;0.90;;;;;;;20.75;100.00;98547.88;177653;1260;46223;-85
2023/08/03 02:59:31;;;;;;;1.40;1.00;;;;;;;20.71;100.00;98558.16;178001;1260;46024;-86
2023/08/03 03:03:34;;;;;;;2.00;1.00;;;;;;;20.62;100.00;98560.55;177861;1264;44858;-85
2023/08/03 03:07:37;;;;;;;1.50;0.90;;;;;;;20.59;100.00;98583.29;177911;1260;46016;-85
2023/08/03 03:11:41;;;;;;;1.00;0.80;;;;;;;20.56;100.00;98582.89;178145;1262;59943;-85
2023/08/03 03:15:44;;;;;;;0.80;0.70;;;;;;;20.56;100.00;98577.98;177867;1260;46011;-85
2023/08/03 03:19:48;;;;;;;2.30;1.10;;;;;;;20.55;100.00;98580.38;178234;1261;46133;-86
2023/08/03 03:23:51;;;;;;;2.00;0.60;;;;;;;20.57;100.00;98556.98;178772;1260;46101;-85
2023/08/03 03:27:54;;;;;;;1.00;0.80;;;;;;;20.60;100.00;98555.32;179022;1261;46015;-85
2023/08/03 03:31:57;;;;;;;2.00;1.00;;;;;;;20.65;99.95;98531.50;178744;1260;59390;-85
2023/08/03 03:36:00;;;;;;;1.00;0.70;;;;;;;20.65;98.71;98559.55;178126;1260;46013;-85
2023/08/03 03:40:04;;;;;;;2.70;1.10;;;;;;;20.69;96.89;98575.15;178289;1260;46013;-85
2023/08/03 03:44:07;;;;;;;4.60;0.60;;;;;;;20.72;96.03;98601.08;177973;1264;46462;-85
2023/08/03 03:48:10;;;;;;;2.50;0.90;;;;;;;20.76;95.47;98576.66;177927;1260;46671;-85
2023/08/03 03:52:14;;;;;;;7.50;1.60;;;;;;;20.77;95.49;98604.36;177994;1264;58294;-86
2023/08/03 03:56:17;;;;;;;1.80;1.00;;;;;;;20.78;93.85;98623.96;177659;1260;46091;-85
2023/08/03 04:00:20;;;;;;;1.00;0.90;;;;;;;20.80;93.61;98630.20;178063;1260;45678;-85
2023/08/03 04:04:23;;;;;;;1.60;0.70;;;;;;;20.87;93.89;98626.99;177795;1260;46250;-85
2023/08/03 04:08:26;;;;;;;2.30;0.80;;;;;;;20.94;94.09;98610.13;177572;1260;45994;-85
2023/08/03 04:12:29;;;;;;;5.30;1.20;;;;;;;20.96;93.37;98614.60;177726;1264;58117;-85
2023/08/03 04:16:32;;;;;;;2.00;1.20;;;;;;;20.94;93.25;98628.78;177776;1261;44884;-85
2023/08/03 04:20:35;;;;;;;2.10;1.00;;;;;;;20.93;92.44;98600.90;178497;1260;44768;-85
2023/08/03 04:24:38;;;;;;;2.30;1.50;;;;;;;20.96;93.01;98598.06;178931;1261;46037;-85
2023/08/03 04:28:42;;;;;;;1.90;0.90;;;;;;;20.98;92.90;98630.59;178179;1260;46114;-85
2023/08/03 04:32:46;;;;;;;3.20;1.00;;;;;;;21.00;93.21;98620.79;177912;1260;60313;-85
2023/08/03 04:36:49;;;;;;;1.50;1.00;;;;;;;21.02;92.74;98584.33;178167;1260;46125;-85
2023/08/03 04:40:52;;;;;;;1.90;1.50;;;;;;;21.08;92.91;98625.58;177981;1261;46103;-85
2023/08/03 04:44:56;;;;;;;3.00;0.80;;;;;;;21.12;92.20;98654.09;177752;1261;46224;-85
2023/08/03 04:48:59;;;;;;;3.50;1.40;;;;;;;21.14;91.67;98657.39;177808;1266;45997;-85
2023/08/03 04:53:02;;;;;;;1.50;0.80;;;;;;;21.22;92.30;98630.25;177891;1261;59941;-85
2023/08/03 04:57:06;;;;;;;2.40;0.90;;;;;;;21.24;90.84;98639.11;177704;1262;46139;-85
2023/08/03 05:01:09;;;;;;;1.70;1.00;;;;;;;21.25;88.57;98630.82;178591;1260;45981;-85
2023/08/03 05:05:12;;;;;;;3.20;1.30;;;;;;;21.29;89.05;98635.45;178383;1261;45988;-84
2023/08/03 05:09:15;;;;;;;2.10;0.80;;;;;;;21.29;87.62;98633.91;178618;1260;45985;-85
2023/08/03 05:13:18;;;;;;;1.40;1.10;;;;;;;21.31;87.55;98631.05;178484;1260;60225;-85
2023/08/03 05:17:22;;;;;;;2.30;1.30;;;;;;;21.77;90.71;98635.73;177914;1260;312635;-85
2023/08/03 05:21:25;;;;;;;2.70;1.40;;;;;;;22.99;91.02;98628.56;178249;1264;46203;-85
2023/08/03 05:25:28;;;;;;;2.10;1.00;;;;;;;24.27;81.14;98620.55;178670;1260;45891;-86
2023/08/03 05:29:31;;;;;;;0.90;0.60;;;;;;;25.34;75.72;98605.05;178522;1260;45998;-85
2023/08/03 05:33:35;;;;;;;6.20;2.40;;;;;;;26.24;73.10;98612.98;179124;1260;57954;-84
2023/08/03 05:37:38;;;;;;;2.30;1.50;;;;;;;27.00;69.65;98604.34;179342;1261;45908;-84
2023/08/03 05:41:42;;;;;;;6.20;1.10;;;;;;;27.70;68.56;98613.48;179004;1260;46052;-84
2023/08/03 05:45:49;;;;;;;1.10;0.80;;;;;;;28.33;66.24;98624.15;179180;1260;46202;-84
2023/08/03 05:49:52;;;;;;;1.60;0.50;;;;;;;28.38;64.41;98624.05;179300;1260;46015;-84
2023/08/03 05:53:56;;;;;;;0.80;0.40;;;;;;;28.44;63.99;98630.89;179192;1261;58273;-84
2023/08/03 05:58:00;;;;;;;2.60;1.00;;;;;;;28.36;64.02;98639.36;179469;1260;45982;-84
2023/08/03 06:02:19;;;;;;;3.80;1.30;;;;;;;28.23;64.17;98644.86;179291;1260;45994;-83
2023/08/03 06:06:23;;;;;;;3.30;0.60;;;;;;;28.11;64.87;98647.80;179520;1260;46010;-84
2023/08/03 06:10:28;;;;;;;4.40;1.60;;;;;;;28.23;63.14;98654.17;179247;1260;46469;-84
2023/08/03 06:14:32;;;;;;;;;;;;;;;27.74;60.61;98673.83;179570;1260;59585;-83
2023/08/03 06:18:58;;;;;;;2.20;0.50;;;;;;;26.92;61.66;98673.48;179368;1260;46109;-84
2023/08/03 06:23:03;;;;;;;1.50;0.90;;;;;;;26.11;63.49;98672.26;179274;1261;45991;-84
2023/08/03 06:27:11;;;;;;;1.30;0.60;;;;;;;25.50;64.65;98667.73;179145;1260;45932;-83
2023/08/03 06:31:24;;;;;;;2.30;1.10;;;;;;;25.07;66.09;98669.70;179210;1261;46048;-83
2023/08/03 06:35:38;;;;;;;2.00;1.00;;;;;;;24.73;67.62;98682.31;179104;1260;58103;-83
2023/08/03 06:39:42;;;;;;;0.90;0.80;;;;;;;24.44;68.27;98667.75;179204;1259;44010;-83
2023/08/03 06:43:46;;;;;;;3.60;1.20;;;;;;;24.25;69.05;98672.92;178761;1260;44615;-83
2023/08/03 06:47:49;;;;;;;1.60;0.70;;;;;;;24.25;69.57;98680.98;178883;1262;46007;-83
2023/08/03 06:51:54;;;;;;;2.00;0.70;;;;;;;24.75;68.22;98700.55;178941;1260;46030;-83
2023/08/03 06:56:00;;;;;;;9.50;1.00;;;;;;;25.44;68.62;98710.48;178920;1260;57942;-83
2023/08/03 07:00:05;;;;;;;6.10;0.60;;;;;;;25.86;66.20;98692.77;178942;1261;45924;-84
2023/08/03 07:04:08;;;;;;;1.80;0.90;;;;;;;25.89;64.91;98705.52;179032;1259;46084;-83
2023/08/03 07:08:12;;;;;;;5.20;0.70;;;;;;;25.64;64.02;98698.65;179050;1261;46016;-83
2023/08/03 07:12:15;;;;;;;2.50;1.00;;;;;;;25.37;64.92;98692.59;178817;1261;46152;-83
2023/08/03 07:16:22;;;;;;;2.50;0.70;;;;;;;25.10;64.04;98687.52;178848;1260;59548;-84
2023/08/03 07:20:25;;;;;;;1.90;1.00;;;;;;;24.78;64.34;98688.80;179328;1260;46060;-83
2023/08/03 07:24:32;;;;;;;2.10;0.90;;;;;;;24.55;64.75;98699.70;179053;1263;46804;-83
2023/08/03 07:28:36;;;;;;;1.10;0.60;;;;;;;24.32;64.61;98704.48;178944;1260;45089;-84
2023/08/03 07:32:39;;;;;;;2.60;0.30;;;;;;;24.26;65.39;98703.37;178630;1260;43962;-83
2023/08/03 07:36:42;;;;;;;2.50;0.60;;;;;;;24.35;64.70;98701.64;178689;1261;59639;-84
2023/08/03 07:40:45;;;;;;;2.20;0.80;;;;;;;24.46;64.19;98692.77;178358;1261;45893;-84
2023/08/03 07:44:53;;;;;;;0.90;0.30;;;;;;;24.57;64.84;98684.08;178606;1262;46024;-83
2023/08/03 07:48:57;;;;;;;2.40;1.10;;;;;;;24.67;64.13;98685.95;178836;1260;46024;-83
2023/08/03 07:53:00;;;;;;;1.30;0.60;;;;;;;24.80;64.17;98674.66;178701;1260;46034;-83
2023/08/03 07:57:04;;;;;;;2.60;0.50;;;;;;;24.94;63.87;98679.84;178583;1260;59960;-84
2023/08/03 08:01:08;;;;;;;1.30;1.00;;;;;;;25.25;63.23;98680.54;178675;1260;46024;-83
2023/08/03 08:05:11;;;;;;;3.40;0.80;;;;;;;25.50;62.81;98686.11;178812;1264;45978;-84
2023/08/03 08:09:15;;;;;;;5.30;0.50;;;;;;;25.58;62.37;98682.13;178955;1260;46026;-84
2023/08/03 08:13:18;;;;;;;2.00;1.10;;;;;;;25.60;60.82;98680.83;178922;1260;45251;-83
2023/08/03 08:17:22;;;;;;;4.20;0.50;;;;;;;25.50;60.81;98675.88;178699;1260;58025;-84
2023/08/03 08:21:25;;;;;;;9.20;1.60;;;;;;;25.85;61.67;98667.54;179012;1261;46013;-84
2023/08/03 08:25:33;;;;;;;1.80;0.60;;;;;;;26.21;60.90;98675.91;179032;1261;45182;-84
2023/08/03 08:29:37;;;;;;;0.80;0.40;;;;;;;26.33;59.43;98683.95;178963;1264;43864;-84
2023/08/03 08:33:41;;;;;;;2.30;0.70;;;;;;;26.55;58.76;98687.25;179078;1261;44054;-84
2023/08/03 08:37:44;;;;;;;0.70;0.40;;;;;;;26.52;56.63;98683.70;179313;1261;58214;-84
2023/08/03 08:41:48;;;;;;;0.40;0.30;;;;;;;26.27;54.86;98686.98;179064;1261;44503;-84
2023/08/03 08:45:52;;;;;;;0.90;0.40;;;;;;;26.09;55.95;98698.73;178892;1264;43667;-83
2023/08/03 08:49:55;;;;;;;2.40;0.50;;;;;;;25.90;55.99;98706.77;178977;1260;45988;-84
2023/08/03 08:54:02;;;;;;;0.70;0.30;;;;;;;25.71;56.13;98710.61;179016;1263;46013;-84
2023/08/03 08:58:08;;;;;;;0.50;0.20;;;;;;;25.46;55.37;98707.63;178762;1261;58258;-84
2023/08/03 09:02:24;;;;;;;2.50;0.60;;;;;;;25.30;56.74;98717.53;178847;1261;45970;-84
2023/08/03 09:06:28;;;;;;;1.90;0.80;;;;;;;25.30;57.60;98722.52;178958;1262;46072;-83
2023/08/03 09:10:46;;;;;;;1.30;0.60;;;;;;;25.07;59.20;98714.15;178880;1260;45882;-83
2023/08/03 09:14:50;;;;;;;0.70;0.40;;;;;;;25.09;59.84;98733.10;178775;1260;46855;-84
2023/08/03 09:18:54;;;;;;;0.50;0.20;;;;;;;25.03;60.07;98742.09;178706;1260;58253;-83
2023/08/03 09:22:58;;;;;;;2.00;0.60;;;;;;;25.04;60.54;98744.86;178827;1260;46063;-83
2023/08/03 09:27:16;;;;;;;2.80;0.80;;;;;;;25.12;61.08;98745.25;179001;1261;46193;-84
2023/08/03 09:31:24;;;;;;;3.20;0.60;;;;;;;25.37;61.16;98748.81;178940;1264;45347;-83
2023/08/03 09:35:33;;;;;;;4.80;0.50;;;;;;;25.52;59.95;98760.05;178935;1261;46000;-84
2023/08/03 09:39:53;;;;;;;1.50;0.60;;;;;;;25.57;59.38;98760.69;178870;1260;60304;-83
2023/08/03 09:43:59;;;;;;;4.00;0.70;;;;;;;25.67;59.63;98755.02;178826;1260;46031;-83
2023/08/03 09:48:22;;;;;;;1.40;0.60;;;;;;;25.81;58.93;98750.69;179061;1260;46025;-84
2023/08/03 09:52:31;;;;;;;2.60;0.50;;;;;;;26.05;57.64;98752.05;179347;1261;46094;-84
2023/08/03 09:56:41;;;;;;;1.70;0.60;;;;;;;26.11;56.72;98750.39;179047;1260;45908;-83
2023/08/03 10:00:46;;;;;;;1.60;0.90;;;;;;;26.06;57.15;98753.81;178974;1261;59564;-83
2023/08/03 10:04:59;;;;;;;2.20;0.80;;;;;;;26.00;56.82;98755.52;179115;1260;46017;-83
2023/08/03 10:09:08;;;;;;;0.60;0.20;;;;;;;25.98;57.01;98759.65;179087;1261;46001;-84
2023/08/03 10:13:14;;;;;;;1.10;0.50;;;;;;;25.99;57.08;98761.08;179003;1262;44326;-84
2023/08/03 10:17:19;;;;;;;4.80;0.70;;;;;;;26.00;57.94;98760.43;179169;1262;46064;-83
2023/08/03 10:21:22;;;;;;;2.50;0.50;;;;;;;26.04;56.42;98751.73;179185;1261;58240;-83
2023/08/03 10:25:25;;;;;;;0.80;0.30;;;;;;;26.00;55.77;98761.89;178870;1260;45996;-84
2023/08/03 10:29:51;;;;;;;2.60;0.70;;;;;;;25.93;57.10;98766.12;179009;1261;45939;-83
2023/08/03 10:33:55;;;;;;;2.80;0.70;;;;;;;25.89;58.15;98768.00;179047;1261;44709;-83
2023/08/03 10:38:00;;;;;;;4.20;0.70;;;;;;;25.84;58.12;98768.89;179109;1261;46007;-83
2023/08/03 10:42:25;;;;;;;3.50;1.80;;;;;;;25.65;57.33;98779.46;178937;1261;60552;-84
2023/08/03 10:46:39;;;;;;;3.20;0.40;;;;;;;25.55;58.78;98776.95;179250;1260;45057;-83
2023/08/03 10:51:03;;;;;;;3.20;0.60;;;;;;;25.54;59.58;98779.50;179049;1260;46150;-83
2023/08/03 10:55:26;;;;;;;5.20;0.60;;;;;;;25.60;59.24;98785.04;178866;1262;46001;-84
2023/08/03 10:59:45;;;;;;;3.40;0.70;;;;;;;25.55;58.11;98780.09;179038;1261;43865;-83
2023/08/03 11:03:50;;;;;;;2.50;0.60;;;;;;;25.57;58.48;98783.77;179045;1260;58215;-83
2023/08/03 11:07:54;;;;;;;2.50;0.30;;;;;;;25.65;59.27;98786.54;178964;1261;46524;-84
2023/08/03 11:11:59;;;;;;;1.30;0.30;;;;;;;25.76;58.97;98782.84;179205;1261;46011;-83
2023/08/03 11:16:03;;;;;;;32.00;3.60;;;;;;;25.92;60.10;98779.95;179063;1261;45965;-84
2023/08/03 11:20:12;;;;;;;1.00;0.50;;;;;;;26.07;59.39;98772.17;179321;1260;44057;-84
2023/08/03 11:24:16;;;;;;;3.80;0.60;;;;;;;26.40;59.54;98768.83;179160;1261;57926;-83
2023/08/03 11:28:19;;;;;;;2.00;0.40;;;;;;;26.59;56.89;98765.95;179015;1261;46046;-83
2023/08/03 11:32:25;;;;;;;2.50;0.70;;;;;;;26.63;56.65;98769.66;179031;1262;46197;-83
2023/08/03 11:36:28;;;;;;;1.70;0.40;;;;;;;26.59;56.44;98773.42;179178;1261;45970;-84
2023/08/03 11:40:35;;;;;;;1.00;0.30;;;;;;;26.70;56.70;98774.91;179043;1262;46046;-84
2023/08/03 11:44:39;;;;;;;;;;;;;;;26.84;55.96;98774.07;179080;1262;58281;-83
2023/08/03 11:48:58;;;;;;;2.90;0.90;;;;;;;26.91;56.92;98773.87;179198;1260;45864;-84
2023/08/03 11:53:02;;;;;;;3.40;1.20;;;;;;;27.13;56.27;98775.91;179221;1262;44741;-83
2023/08/03 12:01:31;;;;;;;1.80;0.50;;;;;;;27.29;56.48;98766.35;179311;1261;45971;-84
2023/08/03 12:05:52;;;;;;;4.00;0.70;;;;;;;27.30;55.73;98765.86;179095;1262;60420;-84
2023/08/03 12:10:13;;;;;;;0.90;0.30;;;;;;;27.25;55.06;98768.16;179172;1262;45975;-84
2023/08/03 12:14:20;;;;;;;3.80;0.40;;;;;;;27.17;54.70;98768.54;179583;1260;46130;-84
2023/08/03 12:18:24;;;;;;;0.70;0.20;;;;;;;27.28;56.15;98765.38;179800;1262;45250;-84
2023/08/03 12:22:28;;;;;;;2.60;0.40;;;;;;;27.49;54.98;98770.71;179593;1262;45289;-84
2023/08/03 12:26:31;;;;;;;0.60;0.30;;;;;;;27.86;54.35;98773.12;179661;1259;58361;-85
2023/08/03 12:30:35;;;;;;;0.40;0.20;;;;;;;28.10;51.94;98771.89;180684;1261;45994;-84
2023/08/03 12:34:38;;;;;;;5.60;0.60;;;;;;;27.99;51.30;98776.19;179465;1261;46033;-83
2023/08/03 12:38:42;;;;;;;1.30;0.20;;;;;;;27.62;51.64;98777.80;179331;1261;45943;-84
2023/08/03 12:42:45;;;;;;;6.70;0.70;;;;;;;27.22;52.40;98786.94;179579;1261;46114;-84
2023/08/03 12:46:48;;;;;;;2.70;0.60;;;;;;;27.16;54.30;98787.59;179442;1260;57241;-86
2023/08/03 12:50:53;;;;;;;;;;;;;;;27.46;54.09;98779.14;178878;1261;46136;-86
2023/08/03 12:54:57;;;;;;;4.80;0.30;;;;;;;27.53;52.16;98770.79;178936;1261;45656;-85
2023/08/03 12:59:00;;;;;;;2.60;0.10;;;;;;;27.49;50.97;98778.63;178956;1262;46087;-88
2023/08/03 13:03:04;;;;;;;2.70;0.50;;;;;;;27.54;52.80;98770.77;179025;1262;46095;-87
2023/08/03 13:07:08;;;;;;;3.40;0.60;;;;;;;27.81;51.36;98778.11;179442;1262;59035;-88
2023/08/03 13:11:14;;;;;;;2.50;0.40;;;;;;;28.05;50.92;98785.77;178965;1262;46052;-86
2023/08/03 13:15:17;;;;;;;1.80;0.30;;;;;;;28.22;50.62;98787.34;179162;1261;44706;-87
2023/08/03 13:19:21;;;;;;;6.30;0.70;;;;;;;28.44;50.70;98798.34;179267;1262;45864;-87
2023/08/03 13:23:24;;;;;;;6.50;0.80;;;;;;;28.61;49.07;98802.02;179197;1262;46047;-87
2023/08/03 13:27:28;;;;;;;1.90;0.20;;;;;;;28.36;49.93;98795.21;179082;1262;57494;-88
2023/08/03 13:31:32;;;;;;;1.20;0.60;;;;;;;28.41;50.34;98796.45;179061;1261;45928;-87
2023/08/03 13:35:36;;;;;;;0.50;0.00;;;;;;;28.54;51.04;98800.15;179255;1263;44571;-89
2023/08/03 13:39:39;;;;;;;2.60;0.20;;;;;;;28.57;50.30;98806.77;179137;1261;44696;-89
2023/08/03 13:43:45;;;;;;;1.00;0.30;;;;;;;28.46;50.68;98806.80;179313;1261;46128;-89
2023/08/03 13:47:49;;;;;;;3.80;0.30;;;;;;;28.56;49.39;98813.44;179310;1260;60400;-89
2023/08/03 13:51:53;;;;;;;0.70;0.50;;;;;;;28.73;50.13;98820.29;179401;1261;45881;-90
2023/08/03 13:55:58;;;;;;;1.00;0.20;;;;;;;28.94;50.92;98818.17;179370;1264;46145;-89
2023/08/03 14:00:03;;;;;;;26.10;3.30;;;;;;;28.76;47.50;98825.09;179278;1264;46164;-87
2023/08/03 14:04:08;;;;;;;2.00;0.10;;;;;;;28.38;47.47;98830.80;178899;1261;44576;-87
2023/08/03 14:08:12;;;;;;;1.90;0.50;;;;;;;28.08;48.12;98836.78;179583;1262;59365;-87
2023/08/03 14:12:17;;;;;;;0.90;0.40;;;;;;;27.93;48.70;98831.08;179292;1262;46181;-86
2023/08/03 14:16:21;;;;;;;1.40;0.20;;;;;;;27.75;49.13;98840.34;179056;1262;46138;-87
2023/08/03 14:20:27;;;;;;;3.10;0.60;;;;;;;27.73;49.17;98844.88;179141;1261;45209;-87
2023/08/03 14:24:34;;;;;;;1.60;0.40;;;;;;;27.72;49.66;98845.04;179074;1261;45978;-88
2023/08/03 14:28:38;;;;;;;3.60;0.70;;;;;;;27.86;48.66;98850.42;179264;1262;58108;-85
2023/08/03 15:07:38;;;;;;;1.10;0.10;;;;;;;26.58;49.56;98889.45;179904;1260;43667;-64
2023/08/03 15:11:44;;;;;;;1.60;0.20;;;;;;;26.58;50.08;98888.52;179929;1260;44626;-65
2023/08/03 15:15:49;;;;;;;1.20;0.30;;;;;;;26.61;49.90;98891.31;179791;1260;46008;-65
2023/08/03 15:19:54;;;;;;;2.50;0.30;;;;;;;26.64;50.19;98901.80;179825;1260;58753;-64
2023/08/03 15:24:00;;;;;;;0.60;0.20;;;;;;;26.74;50.59;98904.73;179815;1260;43819;-64
2023/08/03 15:28:05;;;;;;;2.20;0.30;;;;;;;26.77;49.90;98909.11;179860;1261;43800;-65
2023/08/03 15:32:13;;;;;;;0.70;0.50;;;;;;;26.77;49.40;98913.96;179914;1260;45981;-65
2023/08/03 15:36:44;;;;;;;4.30;1.10;;;;;;;26.69;49.52;98919.86;179842;1260;45899;-64
2023/08/03 15:40:56;;;;;;;1.10;0.70;;;;;;;26.50;48.78;98918.48;180410;1259;88034;-64
2023/08/03 15:45:32;;;;;;;3.30;0.30;;;;;;;26.36;49.71;98926.26;179945;1261;45949;-91
2023/08/03 15:50:05;;;;;;;0.90;0.30;;;;;;;26.30;50.11;98929.48;179625;1260;48361;-91
2023/08/03 15:59:13;;;;;;;2.80;0.40;;;;;;;26.05;50.81;98934.98;179523;1263;46394;-91
2023/08/03 16:03:20;;;;;;;1.80;0.30;;;;;;;25.98;51.17;98938.23;179388;1264;57508;-91
2023/08/03 16:07:55;;;;;;;2.40;0.20;;;;;;;26.03;51.73;98939.59;179338;1262;50326;-90
2023/08/03 16:12:19;;;;;;;;;;;;;;;26.07;51.67;98937.37;179160;1263;45468;-91
2023/08/03 16:16:26;;;;;;;1.90;0.30;;;;;;;26.08;51.58;98938.74;179469;1262;45730;-90
2023/08/03 16:25:25;;;;;;;1.50;0.20;;;;;;;26.34;52.95;98951.98;179356;1263;60338;-91
2023/08/03 16:29:31;;;;;;;5.00;0.40;;;;;;;26.38;52.82;98952.01;179236;1262;46001;-91
2023/08/03 16:33:38;;;;;;;0.20;0.10;;;;;;;26.24;52.23;98960.95;179262;1263;44730;-90
2023/08/03 16:37:48;;;;;;;0.80;0.10;;;;;;;26.19;52.34;98961.02;179363;1263;44663;-91
2023/08/03 16:41:53;;;;;;;1.60;0.40;;;;;;;26.29;52.43;98960.61;179242;1263;46572;-91
2023/08/03 16:46:22;;;;;;;9.60;1.10;;;;;;;26.45;52.52;98964.14;179232;1263;59526;-91
2023/08/03 16:51:01;;;;;;;0.70;0.40;;;;;;;26.48;52.42;98968.46;179132;1263;44140;-89
2023/08/03 16:55:08;;;;;;;0.60;0.30;;;;;;;26.48;51.86;98967.98;178848;1263;44195;-90
2023/08/03 16:59:12;;;;;;;25.60;2.50;;;;;;;26.44;51.52;98966.27;178659;1263;44635;-91
2023/08/03 17:03:21;;;;;;;2.20;0.30;;;;;;;26.40;51.71;98972.73;178616;1263;46030;-90
2023/08/03 17:07:25;;;;;;;4.00;0.70;;;;;;;26.32;52.08;98970.16;178729;1264;58768;-90
2023/08/03 17:11:32;;;;;;;4.30;0.60;;;;;;;26.14;52.06;98972.96;179040;1264;46025;-90
2023/08/03 17:15:37;;;;;;;1.20;0.20;;;;;;;25.97;52.44;98968.03;178093;1263;286645;-90
2023/08/03 17:19:42;;;;;;;5.10;0.40;;;;;;;25.78;53.09;98981.39;178534;1263;45954;-91
2023/08/03 17:23:47;;;;;;;2.40;0.30;;;;;;;25.60;53.37;98985.85;178372;1262;46129;-90
2023/08/03 17:27:51;;;;;;;2.20;0.40;;;;;;;25.45;53.50;98990.40;178395;1262;59372;-90
2023/08/03 17:31:55;;;;;;;11.80;1.30;;;;;;;25.34;53.92;98990.98;178571;1262;50313;-90
2023/08/03 17:35:59;;;;;;;1.20;0.30;;;;;;;25.18;53.95;98996.42;178726;1262;46166;-90
2023/08/03 17:40:03;;;;;;;4.20;0.50;;;;;;;25.03;53.71;99003.08;178557;1262;45987;-90
2023/08/03 17:49:09;;;;;;;1.40;0.30;;;;;;;24.76;54.50;99011.31;179666;1260;61961;-90
2023/08/03 17:58:05;;;;;;;3.50;0.90;;;;;;;24.54;55.49;99023.70;180034;1264;46098;-90
2023/08/03 18:02:09;;;;;;;5.80;1.10;;;;;;;24.41;55.88;99023.23;178526;1266;46235;-91
2023/08/03 18:11:02;;;;;;;1.80;0.30;;;;;;;24.12;57.11;99033.56;180389;1262;85037;-58
2023/08/03 18:15:07;;;;;;;3.20;0.20;;;;;;;23.95;56.92;99043.55;180472;1259;44759;-58
2023/08/03 18:19:11;;;;;;;1.30;0.10;;;;;;;23.79;57.13;99050.55;180557;1258;43663;-58
2023/08/03 18:23:18;;;;;;;1.10;0.30;;;;;;;23.71;57.66;99054.36;180508;1259;46317;-58
2023/08/03 18:27:22;;;;;;;1.00;0.20;;;;;;;23.58;57.93;99068.29;180553;1259;43714;-57
2023/08/03 18:31:25;;;;;;;2.40;0.60;;;;;;;23.47;58.43;99072.09;180398;1259;58168;-57
2023/08/03 18:50:04;;;;;;;5.00;0.90;;;;;;;22.84;60.68;99094.36;179786;1262;46098;-90
2023/08/03 18:54:12;;;;;;;4.40;0.60;;;;;;;22.71;61.07;99103.50;178982;1266;58125;-91
2023/08/03 19:07:19;;;;;;;3.70;0.30;;;;;;;22.22;62.83;99117.96;180081;1264;84524;-67
2023/08/03 19:11:24;;;;;;;6.90;0.90;;;;;;;22.11;63.42;99124.77;180022;1263;45897;-66
2023/08/03 19:15:31;;;;;;;2.80;0.70;;;;;;;21.99;64.00;99133.33;179861;1261;58233;-70
2023/08/03 19:19:37;;;;;;;1.40;0.60;;;;;;;21.87;64.58;99133.23;179875;1262;43596;-68
2023/08/03 19:23:40;;;;;;;7.00;1.50;;;;;;;21.75;65.06;99142.64;179779;1262;46027;-69
2023/08/03 19:27:43;;;;;;;17.50;2.30;;;;;;;21.65;65.50;99158.64;179805;1261;46221;-69
2023/08/03 19:31:47;;;;;;;1.60;0.30;;;;;;;21.53;66.29;99163.42;179739;1262;43538;-69
2023/08/03 19:35:56;;;;;;;4.60;0.30;;;;;;;21.42;66.58;99168.78;179746;1262;58021;-69
2023/08/03 19:40:00;;;;;;;2.50;0.60;;;;;;;21.34;66.84;99177.40;179864;1262;43504;-70
2023/08/03 19:44:03;;;;;;;1.50;0.20;;;;;;;21.29;67.02;99181.83;179904;1260;43794;-68
2023/08/03 19:48:07;;;;;;;1.00;0.50;;;;;;;21.22;67.53;99188.50;179884;1262;46148;-69
2023/08/03 19:52:31;;;;;;;2.50;0.40;;;;;;;21.15;67.78;99192.77;179877;1261;45892;-69
2023/08/03 19:56:54;;;;;;;1.00;0.40;;;;;;;21.08;68.11;99194.13;179984;1261;57923;-68
2023/08/03 20:01:04;;;;;;;1.50;0.80;;;;;;;21.03;68.23;99195.70;179832;1263;46004;-69
2023/08/03 20:05:36;;;;;;;3.20;1.10;;;;;;;20.98;68.62;99199.52;179382;1266;44986;-69
2023/08/03 20:09:42;;;;;;;1.70;1.00;;;;;;;20.91;68.91;99207.61;179419;1265;46160;-66
2023/08/03 20:13:46;;;;;;;1.70;1.30;;;;;;;20.84;69.37;99208.13;179422;1265;43615;-69
2023/08/03 20:17:52;;;;;;;2.70;1.20;;;;;;;20.73;69.95;99207.42;179280;1265;58443;-69
2023/08/03 20:22:17;;;;;;;2.90;1.30;;;;;;;20.63;70.71;99215.23;179407;1265;43581;-66
2023/08/03 20:26:22;;;;;;;3.20;0.30;;;;;;;20.56;70.76;99214.20;179459;1268;46174;-64
2023/08/03 20:30:39;;;;;;;1.50;0.60;;;;;;;20.49;70.80;99218.23;179742;1261;43807;-69